Time;durP1;ratioP1;P1;durP2;ratioP2;P2;SDS_P1;SDS_P2;PMS_P1;PMS_P2;Temp;Humidity;BMP_temperature;BMP_pressure;BME280_temperature;BME280_humidity;BME280_pressure;Samples;Min_cycle;Max_cycle;Signal;HPM_P1;HPM_P2
2022/01/10 00:00:06;;;;;;;2.60;1.30;;;;;;;19.58;55.13;98949.31;5000815;28;20026;-89
2022/01/10 00:02:32;;;;;;;2.83;1.02;;;;;;;19.55;55.13;98944.25;5001746;28;20474;-88
2022/01/10 00:04:57;;;;;;;3.72;1.30;;;;;;;19.56;55.32;98935.34;5000939;28;20030;-87
2022/01/10 00:07:23;;;;;;;2.85;1.38;;;;;;;19.57;55.05;98937.03;5000674;28;20022;-88
2022/01/10 00:09:48;;;;;;;3.08;1.20;;;;;;;19.56;55.12;98934.50;5000852;28;20033;-88
2022/01/10 00:12:14;;;;;;;3.13;1.17;;;;;;;19.59;55.52;98935.16;5000827;28;20037;-88
2022/01/10 00:14:39;;;;;;;3.17;1.13;;;;;;;19.59;55.10;98924.59;5001588;28;20053;-87
2022/01/10 00:17:05;;;;;;;2.88;1.30;;;;;;;19.62;55.08;98917.38;5001923;28;20036;-87
2022/01/10 00:19:31;;;;;;;2.78;1.00;;;;;;;19.58;55.46;98920.22;5001894;28;20062;-86
2022/01/10 00:21:56;;;;;;;3.33;1.33;;;;;;;19.59;55.12;98914.00;5000887;28;20022;-87
2022/01/10 00:24:22;;;;;;;2.63;1.27;;;;;;;19.59;55.29;98907.84;5002038;28;20025;-88
2022/01/10 00:26:48;;;;;;;3.08;1.10;;;;;;;19.62;55.36;98925.31;5001115;28;20523;-87
2022/01/10 00:29:14;;;;;;;2.13;0.90;;;;;;;19.62;55.19;98917.38;4985041;28;20570;-88
2022/01/10 00:31:40;;;;;;;2.22;0.80;;;;;;;19.61;55.24;98916.53;5001353;28;20026;-88
2022/01/10 00:34:06;;;;;;;2.75;1.02;;;;;;;19.62;55.20;98918.25;5000853;28;20494;-88
2022/01/10 00:36:31;;;;;;;2.13;1.23;;;;;;;19.62;55.23;98914.75;5001797;28;20089;-89
2022/01/10 00:38:57;;;;;;;2.08;0.80;;;;;;;19.65;55.22;98918.03;5000758;28;20379;-87
2022/01/10 00:41:23;;;;;;;2.75;1.05;;;;;;;19.64;55.00;98910.19;5000536;28;20026;-89
2022/01/10 00:43:50;;;;;;;2.85;1.08;;;;;;;19.63;55.31;98900.56;5000704;28;20068;-89
2022/01/10 00:46:17;;;;;;;3.80;1.10;;;;;;;19.62;55.03;98901.50;5000798;28;20030;-88
2022/01/10 00:48:43;;;;;;;2.17;0.90;;;;;;;19.59;55.09;98892.81;5000791;28;20084;-89
2022/01/10 00:51:09;;;;;;;3.25;0.90;;;;;;;19.61;55.11;98889.22;5000660;28;20022;-89
2022/01/10 00:53:35;;;;;;;3.53;0.80;;;;;;;19.63;55.22;98882.03;5000039;28;20053;-89
2022/01/10 00:56:01;;;;;;;6.07;1.20;;;;;;;19.63;55.16;98887.31;4982444;28;20026;-89
2022/01/10 00:58:26;;;;;;;1.77;0.85;;;;;;;19.61;55.02;98889.22;4999647;28;20026;-88
2022/01/10 01:00:52;;;;;;;3.28;0.88;;;;;;;19.61;55.24;98873.34;4999483;28;20022;-87
2022/01/10 01:03:19;;;;;;;1.92;0.90;;;;;;;19.58;55.23;98869.94;4997675;28;20173;-88
2022/01/10 01:05:45;;;;;;;1.92;0.82;;;;;;;19.58;55.16;98875.22;4998810;28;20037;-85
2022/01/10 01:08:12;;;;;;;1.88;0.82;;;;;;;19.59;55.07;98871.66;4998592;28;20022;-89
2022/01/10 01:26:26;;;;;;;2.50;0.90;;;;;;;19.63;55.22;98903.19;4998205;28;20022;-88
2022/01/10 01:28:52;;;;;;;1.40;0.70;;;;;;;19.62;54.96;98890.91;4997715;28;20038;-88
2022/01/10 01:31:17;;;;;;;1.88;0.88;;;;;;;19.61;55.21;98883.94;4997622;28;20019;-88
2022/01/10 01:33:43;;;;;;;2.55;0.90;;;;;;;19.58;55.17;98906.97;4996753;28;20036;-88
2022/01/10 01:36:09;;;;;;;1.60;0.70;;;;;;;19.59;55.01;98908.72;4997723;28;20110;-88
2022/01/10 01:38:36;;;;;;;1.42;0.60;;;;;;;19.62;55.08;98906.81;4996499;28;20356;-88
2022/01/10 01:41:22;;;;;;;2.45;0.85;;;;;;;19.57;55.20;98894.69;4980181;28;20137;-87
2022/01/10 01:43:49;;;;;;;1.33;0.68;;;;;;;19.63;55.14;98892.63;4997592;28;20538;-88
2022/01/10 01:46:16;;;;;;;1.95;0.70;;;;;;;19.59;55.07;98890.19;4980128;28;20368;-86
2022/01/10 01:48:41;;;;;;;2.78;0.88;;;;;;;19.58;55.20;98880.50;4997422;28;20022;-87
2022/01/10 01:51:07;;;;;;;2.47;0.90;;;;;;;19.63;55.02;98876.72;4996352;28;20033;-88
2022/01/10 01:53:36;;;;;;;1.25;0.70;;;;;;;19.64;55.07;98873.13;4996421;28;20451;-87
2022/01/10 01:56:04;;;;;;;2.15;0.70;;;;;;;19.64;54.80;98883.72;4980223;28;20026;-87
2022/01/10 01:58:31;;;;;;;1.58;0.80;;;;;;;19.63;54.89;98887.31;4980086;28;20050;-87
2022/01/10 02:00:57;;;;;;;1.77;0.70;;;;;;;19.60;54.96;98885.72;4996956;28;20054;-87
2022/01/10 02:03:23;;;;;;;1.52;0.60;;;;;;;19.63;54.87;98892.63;4996480;28;20092;-88
2022/01/10 02:05:48;;;;;;;2.22;0.70;;;;;;;19.61;54.79;98908.59;4994905;28;20030;-88
2022/01/10 02:08:14;;;;;;;2.33;0.50;;;;;;;19.58;54.88;98906.97;4996078;28;20030;-88
2022/01/10 02:10:39;;;;;;;1.15;0.50;;;;;;;19.64;54.81;98896.94;4996290;28;20531;-87
2022/01/10 02:13:05;;;;;;;1.58;0.60;;;;;;;19.64;55.04;98891.66;4996949;28;20046;-88
2022/01/10 02:15:48;;;;;;;2.22;0.70;;;;;;;19.62;55.16;98885.63;4996015;28;20125;-88
2022/01/10 02:18:15;;;;;;;2.38;0.60;;;;;;;19.58;55.02;98890.28;4997264;28;20026;-86
2022/01/10 02:20:41;;;;;;;1.30;0.50;;;;;;;19.62;55.09;98890.91;4996692;28;20465;-88
2022/01/10 02:23:06;;;;;;;1.73;0.50;;;;;;;19.64;54.92;98899.59;4995721;28;20023;-89
2022/01/10 02:25:32;;;;;;;1.20;0.50;;;;;;;19.59;54.91;98887.53;4979657;28;20380;-89
2022/01/10 02:27:59;;;;;;;1.08;0.50;;;;;;;19.57;55.00;98873.53;4995722;28;20058;-88
2022/01/10 02:30:26;;;;;;;1.00;0.40;;;;;;;19.56;55.06;98870.97;4979724;28;20018;-89
2022/01/10 02:32:52;;;;;;;1.00;0.47;;;;;;;19.58;54.97;98875.22;4997664;28;20042;-88
2022/01/10 02:35:32;;;;;;;0.82;0.32;;;;;;;19.62;54.83;98872.41;4997484;28;20368;-88
2022/01/10 02:37:58;;;;;;;1.55;0.60;;;;;;;19.62;55.14;98872.41;4996069;28;20049;-89
2022/01/10 02:40:26;;;;;;;1.00;0.40;;;;;;;19.61;54.95;98866.25;4996878;28;20452;-88
2022/01/10 02:42:53;;;;;;;1.25;0.40;;;;;;;19.64;54.97;98868.69;4998514;28;20022;-87
2022/01/10 02:45:20;;;;;;;1.10;0.50;;;;;;;19.64;54.81;98892.53;4980782;28;20099;-88
2022/01/10 02:47:47;;;;;;;1.38;0.60;;;;;;;19.65;54.86;98891.56;4981370;28;20022;-89
2022/01/10 02:50:14;;;;;;;0.77;0.50;;;;;;;19.65;54.84;98878.34;4998600;28;20045;-88
2022/01/10 02:52:40;;;;;;;0.98;0.60;;;;;;;19.66;54.70;98871.25;4997091;28;20022;-88
2022/01/10 02:55:08;;;;;;;1.33;0.50;;;;;;;19.68;54.68;98895.81;4997794;28;20478;-87
2022/01/10 02:57:35;;;;;;;1.20;0.40;;;;;;;19.66;54.69;98913.59;4978975;28;20048;-88
2022/01/10 03:00:06;;;;;;;1.70;0.65;;;;;;;19.65;55.05;98891.56;4995073;28;20049;-86
2022/01/10 03:02:34;;;;;;;1.75;0.60;;;;;;;19.63;54.80;98895.25;4996227;28;20038;-89
2022/01/10 03:04:59;;;;;;;1.23;0.45;;;;;;;19.66;54.55;98917.09;4980388;28;20026;-89
2022/01/10 03:07:25;;;;;;;2.42;0.60;;;;;;;19.63;54.87;98909.34;4996769;28;20096;-89
2022/01/10 03:09:51;;;;;;;1.42;0.60;;;;;;;19.65;54.83;98912.75;4996410;28;20022;-89
2022/01/10 03:12:17;;;;;;;1.55;0.57;;;;;;;19.65;54.79;98911.88;4997237;28;20032;-89
2022/01/10 03:14:44;;;;;;;1.25;0.50;;;;;;;19.66;54.83;98913.59;4997534;28;20026;-89
2022/01/10 03:17:10;;;;;;;0.40;0.40;;;;;;;19.67;54.76;98915.28;4996423;28;20061;-89
2022/01/10 03:19:36;;;;;;;0.40;0.22;;;;;;;19.63;54.54;98903.19;4997320;28;20022;-87
2022/01/10 03:22:04;;;;;;;0.95;0.40;;;;;;;19.61;54.81;98899.81;4997511;28;20030;-89
2022/01/10 03:24:30;;;;;;;0.93;0.50;;;;;;;19.62;54.89;98912.97;4980996;28;20329;-89
2022/01/10 03:26:55;;;;;;;0.70;0.30;;;;;;;19.61;54.76;98899.81;4982181;28;20482;-89
2022/01/10 03:29:21;;;;;;;0.55;0.30;;;;;;;19.62;54.89;98898.84;4961450;28;20208;-85
2022/01/10 03:31:47;;;;;;;0.45;0.20;;;;;;;19.64;54.48;98894.31;4956911;28;20030;-87
2022/01/10 03:34:13;;;;;;;0.95;0.50;;;;;;;19.65;54.53;98896.84;4956759;28;20062;-86
2022/01/10 03:36:43;;;;;;;0.80;0.30;;;;;;;19.65;54.71;98901.28;4972236;28;20020;-85
2022/01/10 03:39:10;;;;;;;0.80;0.22;;;;;;;19.64;54.63;98900.47;4972069;28;20456;-85
2022/01/10 03:41:36;;;;;;;1.42;0.40;;;;;;;19.64;54.57;98904.88;4971966;28;20322;-88
2022/01/10 03:44:04;;;;;;;0.63;0.32;;;;;;;19.62;54.76;98901.50;4955823;28;20094;-85
2022/01/10 03:46:32;;;;;;;0.40;0.22;;;;;;;19.60;54.55;98909.53;4972225;28;20034;-88
2022/01/10 03:48:58;;;;;;;0.52;0.20;;;;;;;19.59;54.73;98914.00;4971957;28;20433;-89
2022/01/10 03:51:23;;;;;;;1.17;0.40;;;;;;;19.62;54.66;98922.69;4971978;28;20114;-86
2022/01/10 03:53:49;;;;;;;0.65;0.30;;;;;;;19.61;54.67;98928.94;4957093;29;20055;-87
2022/01/10 03:56:14;;;;;;;0.98;0.32;;;;;;;19.63;54.72;98935.81;4971636;28;20076;-87
2022/01/10 03:58:40;;;;;;;0.60;0.30;;;;;;;19.64;54.58;98936.66;4972337;28;20110;-85
2022/01/10 04:01:08;;;;;;;1.15;0.32;;;;;;;19.62;54.48;98944.72;4956771;28;20103;-87
2022/01/10 04:03:34;;;;;;;1.00;0.30;;;;;;;19.63;54.67;98941.13;4971947;28;20055;-87
2022/01/10 04:06:00;;;;;;;1.02;0.40;;;;;;;19.64;54.70;98947.25;4956992;28;20106;-86
2022/01/10 04:08:26;;;;;;;0.45;0.22;;;;;;;19.65;54.61;98955.09;4956891;29;20064;-88
2022/01/10 04:10:52;;;;;;;1.13;0.50;;;;;;;19.66;54.62;98955.94;4957427;28;20436;-87
2022/01/10 04:13:18;;;;;;;0.50;0.30;;;;;;;19.64;54.57;98942.81;4956153;29;20357;-87
2022/01/10 04:15:44;;;;;;;0.77;0.25;;;;;;;19.63;54.42;98956.13;4972062;28;20034;-85
2022/01/10 04:18:09;;;;;;;0.95;0.43;;;;;;;19.63;54.45;98950.84;4972237;28;20201;-87
2022/01/10 04:20:35;;;;;;;0.30;0.20;;;;;;;19.66;54.45;98962.06;4957256;28;20024;-87
2022/01/10 04:23:00;;;;;;;0.70;0.30;;;;;;;19.65;54.57;98964.81;4972089;28;20026;-85
2022/01/10 04:25:26;;;;;;;0.50;0.30;;;;;;;19.65;54.47;98954.22;4956338;28;20024;-85
2022/01/10 04:27:52;;;;;;;0.32;0.25;;;;;;;19.66;54.20;98956.78;4960834;28;20083;-85
2022/01/10 04:30:18;;;;;;;0.75;0.30;;;;;;;19.66;54.24;98950.66;4996910;28;20029;-83
2022/01/10 04:32:44;;;;;;;1.08;0.30;;;;;;;19.64;54.51;98957.81;4981543;28;20363;-84
2022/01/10 04:35:10;;;;;;;0.50;0.25;;;;;;;19.61;54.36;98958.03;4997706;28;20030;-85
2022/01/10 04:37:36;;;;;;;0.73;0.30;;;;;;;19.61;54.40;98973.91;4998533;28;20423;-88
2022/01/10 04:40:01;;;;;;;0.68;0.20;;;;;;;19.59;54.60;98981.94;4998429;28;20026;-85
2022/01/10 04:42:27;;;;;;;0.75;0.25;;;;;;;19.63;54.51;98985.25;4998711;28;20030;-87
2022/01/10 04:44:53;;;;;;;0.40;0.10;;;;;;;19.61;54.49;98995.09;4998656;28;20053;-87
2022/01/10 04:47:18;;;;;;;0.57;0.10;;;;;;;19.55;54.65;98991.88;4981479;28;20026;-86
2022/01/10 04:52:29;;;;;;;0.30;0.15;;;;;;;19.56;54.31;99012.09;4998127;28;20030;-86
2022/01/10 04:54:54;;;;;;;0.77;0.30;;;;;;;19.59;54.34;98997.81;4981636;28;20096;-86
2022/01/10 04:57:20;;;;;;;2.35;0.45;;;;;;;19.58;54.40;99007.53;4998943;28;20034;-87
2022/01/10 04:59:46;;;;;;;0.57;0.20;;;;;;;19.55;54.19;99013.03;4997803;28;20058;-87
2022/01/10 05:02:12;;;;;;;0.98;0.25;;;;;;;19.55;54.33;99021.00;4981325;28;20530;-86
2022/01/10 05:04:37;;;;;;;0.22;0.10;;;;;;;19.55;54.12;99021.00;4997958;28;20068;-87
2022/01/10 05:07:04;;;;;;;0.85;0.20;;;;;;;19.50;54.33;99020.41;4997738;28;20037;-85
2022/01/10 05:09:29;;;;;;;1.58;0.40;;;;;;;19.54;54.27;99016.66;4982625;28;20039;-89
2022/01/10 05:11:56;;;;;;;0.32;0.20;;;;;;;19.54;54.24;99014.00;4998798;28;20018;-87
2022/01/10 05:14:22;;;;;;;0.63;0.20;;;;;;;19.50;54.43;99019.56;4983102;28;20029;-85
2022/01/10 05:16:48;;;;;;;1.63;0.22;;;;;;;19.56;54.36;99030.63;4999811;28;20026;-87
2022/01/10 05:19:13;;;;;;;0.68;0.20;;;;;;;19.58;54.01;99023.44;5001592;28;20036;-87
2022/01/10 05:21:39;;;;;;;0.43;0.15;;;;;;;19.57;54.21;99027.03;4998786;28;20105;-88
2022/01/10 05:24:06;;;;;;;0.22;0.15;;;;;;;19.57;54.41;99032.31;4983083;28;20053;-87
2022/01/10 05:26:31;;;;;;;0.40;0.20;;;;;;;19.57;54.40;99027.03;4999297;28;20026;-87
2022/01/10 05:28:57;;;;;;;0.55;0.30;;;;;;;19.55;54.47;99028.94;4982619;28;20065;-86
2022/01/10 05:31:23;;;;;;;1.15;0.10;;;;;;;19.57;54.41;99029.66;4983000;28;20340;-87
2022/01/10 05:33:49;;;;;;;0.73;0.20;;;;;;;19.58;54.24;99043.78;4999716;28;20340;-87
2022/01/10 05:36:14;;;;;;;0.20;0.10;;;;;;;19.59;54.23;99019.84;5000223;28;20117;-87
2022/01/10 05:38:41;;;;;;;0.85;0.43;;;;;;;19.58;54.27;99049.06;5001000;28;20431;-88
2022/01/10 05:41:06;;;;;;;0.65;0.20;;;;;;;19.62;54.25;99025.91;4999699;28;20411;-88
2022/01/10 05:43:32;;;;;;;0.30;0.10;;;;;;;19.58;54.40;99031.38;4997729;28;20030;-88
2022/01/10 05:45:58;;;;;;;0.38;0.10;;;;;;;19.57;54.20;99027.03;4997669;28;20388;-89
2022/01/10 05:48:29;;;;;;;1.08;0.20;;;;;;;19.54;54.19;99053.69;4998251;28;20027;-89
2022/01/10 05:50:55;;;;;;;0.22;0.10;;;;;;;19.59;54.25;99048.09;4997924;28;20023;-88
2022/01/10 05:53:22;;;;;;;0.75;0.30;;;;;;;19.60;54.19;99068.34;4998179;28;20033;-87
2022/01/10 05:55:48;;;;;;;1.27;0.10;;;;;;;19.57;54.42;99061.44;4996248;28;20022;-88
2022/01/10 05:58:15;;;;;;;1.58;0.30;;;;;;;19.57;54.26;99055.31;4996800;28;20026;-87
2022/01/10 06:00:41;;;;;;;1.50;0.20;;;;;;;19.55;54.51;99055.38;4996943;28;20085;-87
2022/01/10 06:03:06;;;;;;;0.98;0.35;;;;;;;19.59;54.16;99067.50;4978796;28;20459;-86
2022/01/10 06:05:38;;;;;;;1.25;0.30;;;;;;;19.56;54.32;99062.38;5001109;28;20026;-86
2022/01/10 06:08:08;;;;;;;1.02;0.25;;;;;;;19.57;54.39;99057.94;4996739;28;20030;-86
2022/01/10 06:10:35;;;;;;;0.93;0.20;;;;;;;19.58;54.19;99065.78;4996550;28;20042;-87
2022/01/10 06:13:01;;;;;;;1.38;0.30;;;;;;;19.57;54.38;99064.06;4971886;28;20181;-87
2022/01/10 06:15:27;;;;;;;1.13;0.30;;;;;;;19.58;54.37;99075.53;4979417;28;20113;-87
2022/01/10 06:17:53;;;;;;;0.20;0.10;;;;;;;19.56;54.16;99072.97;4995565;28;20113;-88
2022/01/10 06:20:19;;;;;;;0.70;0.20;;;;;;;19.59;54.12;99067.50;4978730;28;20026;-86
2022/01/10 06:22:45;;;;;;;0.63;0.20;;;;;;;19.59;53.93;99072.78;4996860;28;20109;-87
2022/01/10 06:25:14;;;;;;;0.43;0.35;;;;;;;19.59;54.16;99062.22;4996495;28;20022;-87
2022/01/10 06:27:40;;;;;;;1.08;0.30;;;;;;;19.63;54.22;99083.19;4996315;28;20054;-87
2022/01/10 06:30:06;;;;;;;1.10;0.30;;;;;;;19.59;54.23;99083.38;4995518;28;20054;-85
2022/01/10 06:32:32;;;;;;;1.40;0.35;;;;;;;19.58;54.29;99092.25;4995931;28;20096;-87
2022/01/10 06:34:57;;;;;;;0.85;0.28;;;;;;;19.58;54.48;99102.81;5011901;28;20463;-88
2022/01/10 06:37:24;;;;;;;1.17;0.30;;;;;;;19.61;54.28;99112.38;4997168;28;20096;-84
2022/01/10 06:39:51;;;;;;;0.73;0.30;;;;;;;19.58;53.85;99113.41;4996454;28;20440;-88
2022/01/10 06:42:16;;;;;;;2.75;0.30;;;;;;;19.59;54.10;99123.09;4995258;28;20097;-84
2022/01/10 06:44:42;;;;;;;2.00;0.40;;;;;;;19.54;54.11;99116.34;4995726;28;20026;-88
2022/01/10 06:47:08;;;;;;;0.68;0.20;;;;;;;19.48;54.14;99120.22;5012210;28;20022;-87
2022/01/10 06:49:33;;;;;;;0.45;0.20;;;;;;;19.49;54.01;99129.00;4995595;28;20995;-84
2022/01/10 06:52:00;;;;;;;1.98;0.30;;;;;;;19.45;54.03;99133.63;4994021;28;20080;-83
2022/01/10 06:54:26;;;;;;;1.20;0.30;;;;;;;19.47;53.98;99137.06;4994647;28;20018;-85
2022/01/10 06:56:52;;;;;;;1.98;0.30;;;;;;;19.47;54.01;99137.06;4978930;28;20027;-88
2022/01/10 07:02:39;;;;;;;0.80;0.30;;;;;;;19.39;53.97;99134.84;4977181;28;20104;-90
2022/01/10 07:05:17;;;;;;;0.60;0.20;;;;;;;19.45;53.87;99142.44;4975818;28;20035;-86
2022/01/10 07:07:43;;;;;;;0.95;0.20;;;;;;;19.41;53.98;99132.97;4959600;28;20038;-88
2022/01/10 07:10:08;;;;;;;0.57;0.20;;;;;;;19.39;53.83;99155.16;4976356;28;20035;-89
2022/01/10 07:12:34;;;;;;;0.40;0.20;;;;;;;19.38;53.89;99164.03;4960596;28;20125;-85
2022/01/10 07:15:01;;;;;;;1.48;0.30;;;;;;;19.32;53.86;99158.16;4959880;28;20105;-86
2022/01/10 07:17:26;;;;;;;0.82;0.30;;;;;;;19.32;53.87;99166.09;4960115;28;20030;-85
2022/01/10 07:19:53;;;;;;;0.82;0.20;;;;;;;19.31;53.84;99164.41;4975720;28;20421;-83
2022/01/10 07:22:18;;;;;;;1.38;0.40;;;;;;;19.35;53.82;99175.66;4959753;28;20125;-85
2022/01/10 07:24:44;;;;;;;0.93;0.28;;;;;;;19.31;53.88;99180.28;4979256;28;20115;-87
2022/01/10 07:27:10;;;;;;;0.88;0.40;;;;;;;19.32;53.67;99181.97;4960626;28;20062;-86
2022/01/10 07:29:35;;;;;;;1.13;0.50;;;;;;;19.29;53.86;99181.31;4955819;28;20058;-84
2022/01/10 07:32:01;;;;;;;1.20;0.20;;;;;;;19.25;53.86;99185.06;4972468;28;20027;-88
2022/01/10 07:34:27;;;;;;;0.70;0.22;;;;;;;19.27;53.91;99204.38;4955861;28;20054;-87
2022/01/10 07:36:53;;;;;;;1.08;0.40;;;;;;;19.26;53.70;99198.22;4955770;29;20097;-89
2022/01/10 07:39:18;;;;;;;0.60;0.40;;;;;;;19.23;53.76;99206.31;4972484;28;20035;-88
2022/01/10 07:41:44;;;;;;;1.27;0.30;;;;;;;19.26;53.90;99224.66;4957410;28;20098;-87
2022/01/10 07:44:10;;;;;;;0.55;0.28;;;;;;;19.23;53.57;99224.81;4957193;29;20118;-86
2022/01/10 07:46:35;;;;;;;0.73;0.40;;;;;;;19.24;53.90;99236.28;4956256;28;20035;-87
2022/01/10 07:49:02;;;;;;;0.38;0.20;;;;;;;19.24;53.72;99234.50;4972989;28;20031;-92
2022/01/10 07:51:27;;;;;;;0.57;0.20;;;;;;;19.19;53.63;99244.47;4956427;29;20031;-88
2022/01/10 07:53:53;;;;;;;0.43;0.20;;;;;;;19.24;53.60;99247.72;4957162;29;20066;-88
2022/01/10 07:56:19;;;;;;;0.10;0.10;;;;;;;19.23;53.60;99251.28;4972479;28;20027;-87
2022/01/10 07:58:50;;;;;;;1.13;0.30;;;;;;;19.20;53.57;99254.13;4972772;28;20046;-87
2022/01/10 08:01:16;;;;;;;0.25;0.10;;;;;;;19.23;53.56;99261.03;4956817;29;20058;-86
2022/01/10 08:03:42;;;;;;;1.02;0.20;;;;;;;19.22;53.67;99270.75;4959071;28;20035;-87
2022/01/10 08:06:07;;;;;;;0.60;0.20;;;;;;;19.21;53.61;99282.28;4960986;28;20114;-88
2022/01/10 08:08:33;;;;;;;0.60;0.20;;;;;;;19.21;53.69;99286.72;4962193;28;20031;-88
2022/01/10 08:10:59;;;;;;;0.50;0.20;;;;;;;19.22;53.60;99291.91;4961544;28;20441;-88
2022/01/10 08:13:25;;;;;;;0.82;0.30;;;;;;;19.19;53.68;99302.66;4977352;28;20035;-88
2022/01/10 08:15:51;;;;;;;0.73;0.30;;;;;;;19.18;53.71;99303.63;4963048;28;20043;-87
2022/01/10 08:18:18;;;;;;;0.80;0.28;;;;;;;19.17;53.77;99304.53;4964162;28;20445;-87
2022/01/10 08:20:44;;;;;;;0.38;0.20;;;;;;;19.14;53.84;99310.84;4963695;28;20042;-86
2022/01/10 08:23:10;;;;;;;0.90;0.30;;;;;;;19.17;53.76;99321.25;4960471;28;20102;-84
2022/01/10 08:25:35;;;;;;;0.40;0.20;;;;;;;19.16;53.77;99319.56;4975207;28;20133;-85
2022/01/10 08:28:01;;;;;;;0.90;0.32;;;;;;;19.15;53.55;99327.56;4975196;28;20125;-86
2022/01/10 08:30:26;;;;;;;0.40;0.20;;;;;;;19.14;53.40;99333.81;4960404;28;20127;-86
2022/01/10 08:32:52;;;;;;;0.80;0.20;;;;;;;19.13;53.66;99335.59;4959136;28;20062;-85
2022/01/10 08:35:19;;;;;;;0.20;0.10;;;;;;;19.14;53.77;99353.16;4975179;28;20489;-87
2022/01/10 08:37:44;;;;;;;0.57;0.30;;;;;;;19.16;53.45;99367.19;4975152;28;20031;-85
2022/01/10 08:40:11;;;;;;;1.65;0.30;;;;;;;19.15;53.54;99370.75;4974829;28;20059;-86
2022/01/10 08:42:37;;;;;;;0.55;0.30;;;;;;;19.16;53.27;99379.53;4962777;28;20061;-86
2022/01/10 08:45:03;;;;;;;1.80;0.47;;;;;;;19.16;53.30;99371.59;4960025;28;20365;-85
2022/01/10 08:47:29;;;;;;;0.63;0.30;;;;;;;19.15;53.37;99377.84;4959897;28;20041;-86
2022/01/10 08:49:55;;;;;;;0.65;0.40;;;;;;;19.16;53.38;99382.19;4958720;29;20043;-85
2022/01/10 08:52:21;;;;;;;0.75;0.20;;;;;;;19.13;53.53;99393.78;4963341;29;20042;-86
2022/01/10 08:54:48;;;;;;;0.52;0.30;;;;;;;19.12;53.43;99404.47;4965791;28;20031;-85
2022/01/10 08:57:15;;;;;;;0.30;0.20;;;;;;;19.14;53.46;99418.44;4970180;29;20042;-87
2022/01/10 08:59:41;;;;;;;0.50;0.20;;;;;;;19.12;53.59;99415.88;4975749;29;20079;-87
2022/01/10 09:02:07;;;;;;;1.30;0.20;;;;;;;19.13;53.44;99419.38;4982250;28;20062;-88
2022/01/10 09:04:33;;;;;;;0.95;0.50;;;;;;;19.17;53.25;99428.84;4980693;28;20031;-87
2022/01/10 09:07:00;;;;;;;1.08;0.32;;;;;;;19.11;53.16;99419.47;4979312;28;20054;-87
2022/01/10 09:09:26;;;;;;;0.55;0.28;;;;;;;19.11;53.48;99426.53;4993084;28;20031;-86
2022/01/10 09:11:52;;;;;;;0.50;0.20;;;;;;;19.11;53.10;99432.69;4982664;28;20022;-86
2022/01/10 09:14:18;;;;;;;1.00;0.30;;;;;;;19.10;53.21;99422.19;4980158;28;20031;-87
2022/01/10 09:16:43;;;;;;;0.60;0.20;;;;;;;19.09;53.34;99433.72;4978411;28;20019;-88
2022/01/10 09:19:09;;;;;;;0.52;0.20;;;;;;;19.10;53.38;99438.06;4998463;28;20014;-88
2022/01/10 09:21:35;;;;;;;1.25;0.30;;;;;;;19.09;53.20;99433.72;4997783;28;20050;-87
2022/01/10 09:24:01;;;;;;;0.50;0.10;;;;;;;19.10;53.28;99435.41;4982351;28;20075;-87
2022/01/10 09:26:27;;;;;;;0.55;0.20;;;;;;;19.11;53.10;99445.91;4981375;28;20034;-87
2022/01/10 09:28:53;;;;;;;0.38;0.20;;;;;;;19.07;53.28;99448.81;4979605;28;20090;-87
2022/01/10 09:31:19;;;;;;;0.52;0.22;;;;;;;19.11;53.28;99458.28;4973637;29;20027;-86
2022/01/10 09:33:52;;;;;;;0.35;0.30;;;;;;;19.09;53.26;99450.44;4966836;29;20050;-87
2022/01/10 09:36:17;;;;;;;1.13;0.20;;;;;;;19.11;53.05;99452.97;4984306;28;20034;-87
2022/01/10 09:38:43;;;;;;;0.73;0.30;;;;;;;19.10;53.46;99467.16;4971004;28;20035;-87
2022/01/10 09:41:08;;;;;;;0.98;0.30;;;;;;;19.06;53.22;99461.16;4966232;28;20043;-86
2022/01/10 09:43:35;;;;;;;0.90;0.30;;;;;;;19.04;53.04;99450.66;4964900;28;20031;-86
2022/01/10 09:46:00;;;;;;;0.73;0.30;;;;;;;19.05;53.11;99459.47;4964570;28;20035;-87
2022/01/10 09:48:26;;;;;;;0.75;0.30;;;;;;;19.04;53.11;99453.31;4965214;28;20027;-87
2022/01/10 09:50:52;;;;;;;0.73;0.20;;;;;;;19.07;53.34;99462.03;4964156;28;20042;-84
2022/01/10 09:53:21;;;;;;;0.50;0.20;;;;;;;19.03;53.31;99472.75;4963134;29;20050;-87
2022/01/10 09:55:48;;;;;;;0.80;0.20;;;;;;;19.02;53.43;99471.03;4978735;28;20046;-86
2022/01/10 09:58:14;;;;;;;0.08;0.08;;;;;;;19.06;53.51;99469.09;4963206;29;20027;-87
2022/01/10 10:00:40;;;;;;;0.50;0.20;;;;;;;19.05;53.09;99470.88;4982371;28;20118;-87
2022/01/10 10:03:07;;;;;;;0.28;0.20;;;;;;;19.04;53.17;99487.69;4964942;28;20050;-88
2022/01/10 10:05:34;;;;;;;0.50;0.30;;;;;;;19.04;53.12;99494.78;4979777;28;20033;-87
2022/01/10 10:08:00;;;;;;;0.47;0.30;;;;;;;19.03;53.11;99498.38;4964184;28;20110;-87
2022/01/10 10:10:29;;;;;;;0.52;0.15;;;;;;;19.05;53.28;99512.34;4961136;29;20035;-85
2022/01/10 10:12:55;;;;;;;0.30;0.13;;;;;;;19.02;53.20;99512.47;4975068;28;20215;-86
2022/01/10 10:15:26;;;;;;;0.50;0.28;;;;;;;19.03;53.11;99516.88;4963952;28;20539;-86
2022/01/10 10:17:52;;;;;;;0.20;0.10;;;;;;;19.01;53.11;99521.34;4963918;29;20031;-87
2022/01/10 10:20:21;;;;;;;0.95;0.40;;;;;;;19.02;53.22;99513.34;4978563;28;20031;-86
2022/01/10 10:22:49;;;;;;;0.32;0.22;;;;;;;19.03;53.11;99519.53;4961234;29;20089;-87
2022/01/10 10:25:15;;;;;;;0.30;0.20;;;;;;;19.02;53.27;99517.75;4962841;28;20035;-87
2022/01/10 10:27:47;;;;;;;0.63;0.20;;;;;;;19.03;52.90;99512.44;4960881;28;20377;-87
2022/01/10 10:30:18;;;;;;;0.85;0.20;;;;;;;19.01;53.05;99516.94;4980766;28;20397;-88
2022/01/10 10:32:44;;;;;;;1.27;0.43;;;;;;;18.98;53.13;99511.78;4980314;28;20050;-88
2022/01/10 10:35:11;;;;;;;0.57;0.20;;;;;;;18.99;53.22;99524.06;4979716;28;20158;-88
2022/01/10 10:37:38;;;;;;;0.60;0.30;;;;;;;18.99;52.98;99518.78;4962299;28;20346;-88
2022/01/10 10:40:08;;;;;;;0.30;0.20;;;;;;;18.99;53.33;99523.22;4964827;28;20050;-88
2022/01/10 10:42:34;;;;;;;0.20;0.20;;;;;;;19.00;53.17;99519.63;4981466;28;20031;-87
2022/01/10 10:45:04;;;;;;;0.22;0.22;;;;;;;18.97;53.04;99519.78;4981650;28;20041;-87
2022/01/10 10:47:30;;;;;;;0.20;0.20;;;;;;;18.98;53.14;99522.34;4965038;28;20034;-85
2022/01/10 10:49:58;;;;;;;0.70;0.20;;;;;;;18.97;53.14;99518.00;4981759;28;20030;-86
2022/01/10 10:52:30;;;;;;;1.08;0.20;;;;;;;18.96;53.00;99518.06;4980797;28;20060;-87
2022/01/10 10:54:56;;;;;;;0.65;0.20;;;;;;;18.97;53.02;99530.38;4964475;28;20034;-86
2022/01/10 10:57:22;;;;;;;0.82;0.28;;;;;;;18.95;53.18;99534.88;4982008;28;20023;-86
2022/01/10 10:59:48;;;;;;;0.60;0.20;;;;;;;18.96;53.07;99520.72;4982197;28;20639;-87
2022/01/10 11:02:15;;;;;;;0.55;0.30;;;;;;;18.95;53.18;99532.25;4981290;28;20058;-85
2022/01/10 11:04:41;;;;;;;1.05;0.35;;;;;;;18.95;53.05;99538.41;4964488;28;20031;-87
2022/01/10 11:07:08;;;;;;;0.63;0.20;;;;;;;18.95;52.93;99533.09;4964633;28;20330;-87
2022/01/10 11:09:34;;;;;;;0.30;0.20;;;;;;;18.95;53.01;99537.53;4981260;28;20026;-86
2022/01/10 11:12:00;;;;;;;0.40;0.17;;;;;;;18.97;53.08;99538.28;4981927;28;20144;-87
2022/01/10 11:14:27;;;;;;;0.45;0.20;;;;;;;18.96;52.95;99544.53;4980473;28;20452;-86
2022/01/10 11:16:55;;;;;;;0.45;0.20;;;;;;;18.92;53.05;99543.81;4963780;28;20376;-86
2022/01/10 11:19:28;;;;;;;0.43;0.20;;;;;;;18.94;52.89;99541.09;4963706;28;20046;-86
2022/01/10 11:22:01;;;;;;;0.45;0.20;;;;;;;18.92;53.03;99547.34;4963625;28;20448;-86
2022/01/10 11:24:52;;;;;;;0.77;0.28;;;;;;;18.90;52.98;99535.13;4981066;28;20034;-87
2022/01/10 11:27:34;;;;;;;0.73;0.40;;;;;;;18.91;53.17;99547.41;4963806;28;20045;-87
2022/01/10 11:30:24;;;;;;;0.70;0.30;;;;;;;18.91;53.05;99547.41;4960004;28;20054;-88
2022/01/10 11:32:57;;;;;;;0.30;0.10;;;;;;;18.95;53.04;99553.41;4962746;28;20023;-87
2022/01/10 11:35:40;;;;;;;1.65;0.38;;;;;;;18.90;52.97;99551.84;4959865;28;20027;-85
2022/01/10 11:38:21;;;;;;;0.43;0.20;;;;;;;18.89;53.28;99559.88;4956730;28;20096;-86
2022/01/10 11:40:49;;;;;;;0.30;0.28;;;;;;;18.89;53.19;99560.69;4971764;28;20535;-85
2022/01/10 11:43:28;;;;;;;0.50;0.20;;;;;;;18.91;52.97;99563.28;4955684;28;20038;-85
2022/01/10 11:46:34;;;;;;;0.80;0.30;;;;;;;18.91;52.99;99574.72;4956667;29;20039;-87
2022/01/10 11:49:03;;;;;;;0.50;0.20;;;;;;;18.88;53.19;99574.84;4959039;29;20035;-87
2022/01/10 11:51:34;;;;;;;0.85;0.28;;;;;;;18.87;52.99;99564.34;4961111;28;20036;-85
2022/01/10 11:54:16;;;;;;;0.50;0.40;;;;;;;18.87;53.10;99557.28;4961523;28;20030;-87